Latest Coastal Weather Observations for Robe Airport

IDV60701

Issued at 11:22 pm EST Saturday 25 June 2022 (issued every 10 minutes, with the page automatically refreshed every 10 minutes)

About coastal observations | Map of coastal stations | Coastal observations for VIC | Marine services | Other Formats
Station Details ID: 026105 Name: ROBE AIRFIELD Lat: -37.18 Lon: 139.81 Height: 3.0 m
Data from the previous 72 hours. | See also: Recent months at Robe Airport
Date/Time
EST
Wind Sea
Height
m
Swell Vis
km
Cloud Weather Temp
°C
Press
MSL
hPa
Rain since
9am
mm
Dir  Spd
kts
Gust
kts
Height
m
Period
s
Dir
25/11:00pm W 9 14 - - - - - - - 13.5 1020.9 3.0
25/10:30pm W 9 16 - - - - - - - 13.4 1021.0 3.0
25/10:00pm W 9 15 - - - - - - - 13.4 1020.9 3.0
25/09:30pm W 9 14 - - - - - - - 12.7 1020.8 3.0
25/09:00pm W 9 16 - - - - - - - 12.1 1020.7 3.0
25/08:30pm W 11 17 - - - - - - - 13.0 1020.4 3.0
25/08:00pm WNW 8 12 - - - - - - - 12.6 1019.9 3.0
25/07:30pm WNW 12 23 - - - - - - - 12.9 1020.0 2.8
25/07:00pm W 8 14 - - - - - - - 13.8 1019.5 1.2
25/06:30pm NW 9 14 - - - - - - - 13.9 1019.1 1.2
25/06:00pm NW 9 13 - - - - - - - 13.7 1018.9 1.2
25/05:30pm NW 8 12 - - - - - - - 14.0 1018.7 1.2
25/05:00pm NW 10 16 - - - - - - - 14.2 1018.7 1.2
25/04:30pm WNW 10 13 - - - - - - - 14.2 1018.5 1.2
25/04:00pm NW 9 13 - - - - - - - 14.6 1018.5 1.2
25/03:30pm NW 10 15 - - - - - - - 13.7 1018.5 1.2
25/03:00pm NW 8 15 - - - - - - - 14.8 1018.5 1.2
25/02:30pm WNW 6 10 - - - - - - - 14.2 1018.6 1.2
25/02:00pm WNW 8 12 - - - - - - - 15.3 1018.8 0.8
25/01:30pm WNW 8 14 - - - - - - - 14.4 1019.0 0.8
25/01:00pm W 14 23 - - - - - - - 13.0 1019.5 0.6
25/12:30pm NW 10 15 - - - - - - - 14.0 1019.5 0.2
25/12:00pm NW 11 18 - - - - - - - 14.2 1019.6 0.2
25/11:30am NW 10 13 - - - - - - - 14.8 1019.8 0.2
25/11:00am NW 9 13 - - - - - - - 14.4 1019.9 0.2
25/10:30am WNW 8 13 - - - - - - - 13.7 1019.7 0.2
25/10:00am WNW 11 17 - - - - - - - 14.6 1019.3 0.0
25/09:30am WNW 11 15 - - - - - - - 14.9 1019.0 1.8
25/09:00am WNW 8 13 - - - - - - - 14.2 1018.7 1.8
25/08:30am WNW 7 11 - - - - - - - 13.6 1018.5 1.8
25/08:00am WNW 7 11 - - - - - - - 13.0 1018.4 1.8
25/07:30am WNW 8 12 - - - - - - - 13.0 1018.3 1.8
25/07:00am W 7 10 - - - - - - - 12.9 1018.1 1.8
25/06:30am W 7 11 - - - - - - - 12.7 1017.8 1.8
25/06:00am W 8 19 - - - - - - - 12.7 1017.7 1.8
25/05:30am WNW 8 12 - - - - - - - 12.5 1017.4 1.8
25/05:00am W 8 14 - - - - - - - 12.4 1017.3 1.8
25/04:30am NW 9 12 - - - - - - - 12.1 1017.3 1.8
25/04:00am W 7 13 - - - - - - - 12.5 1017.2 1.8
25/03:30am W 10 18 - - - - - - Recent precip. 12.3 1017.3 1.8
25/03:00am WNW 8 13 - - - - - - - 12.4 1017.2 1.6
25/02:30am WNW 7 11 - - - - - - - 11.8 1017.2 1.6
25/02:00am W 5 9 - - - - - - - 11.6 1017.1 1.6
25/01:30am WNW 7 11 - - - - - - - 12.5 1017.3 1.0
25/01:00am W 6 11 - - - - - - - 12.6 1017.5 1.0
25/12:30am WNW 6 9 - - - - - - - 12.1 1017.6 1.0
25/12:00am W 7 12 - - - - - - - 12.2 1017.8 1.0
 
Date/Time
EST
Wind Sea
Height
m
Swell Vis
km
Cloud Weather Temp
°C
Press
MSL
hPa
Rain since
9am
mm
Dir  Spd
kts
Gust
kts
Height
m
Period
s
Dir
24/11:30pm W 4 6 - - - - - - - 11.6 1017.8 1.0
24/11:00pm W 10 16 - - - - - - - 11.7 1017.9 1.0
24/10:30pm NW 6 9 - - - - - - - 11.9 1017.7 1.0
24/10:00pm NW 4 6 - - - - - - - 11.3 1017.7 0.8
24/09:30pm NW 7 18 - - - - - - - 11.9 1017.9 0.6
24/09:00pm WNW 5 8 - - - - - - - 11.9 1017.8 0.6
24/08:30pm W 6 10 - - - - - - - 12.1 1017.8 0.6
24/08:00pm W 4 7 - - - - - - - 11.9 1017.7 0.4
24/07:30pm WNW 6 10 - - - - - - - 12.2 1017.5 0.4
24/07:00pm NW 3 4 - - - - - - - 11.6 1017.3 0.4
24/06:30pm W 3 4 - - - - - - - 11.2 1017.2 0.4
24/06:00pm W 2 4 - - - - - - - 11.5 1017.0 0.4
24/05:30pm W 1 3 - - - - - - - 12.1 1016.8 0.4
24/05:00pm W 2 5 - - - - - - - 12.6 1016.7 0.4
24/04:30pm WSW 4 7 - - - - - - - 13.2 1016.5 0.2
24/04:00pm W 8 14 - - - - - - - 12.3 1016.7 0.2
24/03:30pm WSW 6 9 - - - - - - - 13.5 1016.5 0.2
24/03:00pm WSW 7 11 - - - - - - - 14.1 1016.3 0.2
24/02:30pm WSW 9 14 - - - - - - - 14.4 1016.3 0.2
24/02:00pm WSW 4 8 - - - - - - - 13.9 1016.4 0.2
24/01:30pm WSW 7 12 - - - - - - - 15.5 1016.5 0.0
24/01:00pm W 8 13 - - - - - - - 15.2 1016.8 0.0
24/12:30pm WNW 8 13 - - - - - - - 14.6 1017.1 0.0
24/12:00pm W 7 12 - - - - - - - 14.8 1017.2 0.0
24/11:30am W 7 11 - - - - - - - 15.6 1017.4 0.0
24/11:00am WSW 7 15 - - - - - - - 15.2 1017.4 0.0
24/10:30am WSW 6 9 - - - - - - - 14.8 1017.2 0.0
24/10:00am WSW 8 13 - - - - - - - 13.9 1016.9 0.0
24/09:30am WSW 5 9 - - - - - - - 13.5 1016.7 5.0
24/09:00am WSW 7 13 - - - - - - - 13.6 1016.4 5.0
24/08:30am W 6 11 - - - - - - - 13.4 1016.2 5.0
24/08:00am WSW 5 9 - - - - - - - 13.2 1016.0 5.0
24/07:30am W 5 9 - - - - - - - 13.1 1015.7 5.0
24/07:00am W 7 11 - - - - - - - 13.2 1015.4 5.0
24/06:30am WSW 10 18 - - - - - - - 13.2 1015.0 5.0
24/06:00am W 8 14 - - - - - - - 12.7 1014.7 5.0
24/05:30am WSW 9 15 - - - - - - - 12.9 1014.4 5.0
24/05:00am W 8 15 - - - - - - - 13.2 1014.3 5.0
24/04:30am W 9 15 - - - - - - - 13.4 1014.0 5.0
24/04:00am W 10 16 - - - - - - - 13.4 1014.0 5.0
24/03:30am W 11 17 - - - - - - - 13.5 1013.9 5.0
24/03:00am W 8 13 - - - - - - - 13.4 1013.8 5.0
24/02:30am W 7 12 - - - - - - - 13.5 1013.5 5.0
24/02:00am WSW 7 12 - - - - - - - 13.2 1013.5 5.0
24/01:30am W 6 13 - - - - - - - 13.3 1013.3 5.0
24/01:00am W 7 12 - - - - - - - 13.1 1013.2 5.0
24/12:30am W 4 8 - - - - - - Rain 13.1 1013.5 4.6
24/12:00am W 2 4 - - - - - - - 13.0 1013.3 4.4
 
Date/Time
EST
Wind Sea
Height
m
Swell Vis
km
Cloud Weather Temp
°C
Press
MSL
hPa
Rain since
9am
mm
Dir  Spd
kts
Gust
kts
Height
m
Period
s
Dir
23/11:30pm W 2 5 - - - - - - - 12.9 1013.0 3.8
23/11:00pm WSW 8 15 - - - - - - - 13.5 1013.6 1.4
23/10:30pm NW 13 18 - - - - - - - 14.9 1013.1 0.0
23/10:00pm NNW 14 19 - - - - - - - 14.7 1013.2 0.0
23/09:30pm NNW 13 17 - - - - - - - 14.5 1013.3 0.0
23/09:00pm NNW 15 21 - - - - - - - 14.4 1013.1 0.0
23/08:30pm NNW 16 21 - - - - - - - 14.5 1013.3 0.0
23/08:00pm NNW 18 24 - - - - - - - 14.7 1013.2 0.0
23/07:30pm NNW 17 24 - - - - - - - 14.5 1013.4 0.0
23/07:00pm NNW 15 20 - - - - - - - 14.3 1013.7 0.0
23/06:30pm NNW 12 17 - - - - - - - 14.1 1014.0 0.0
23/06:00pm NNW 16 20 - - - - - - - 14.3 1013.9 0.0
23/05:30pm NNW 14 18 - - - - - - - 14.2 1014.0 0.0
23/05:00pm NNW 14 19 - - - - - - - 14.5 1014.4 0.0
23/04:30pm NNW 15 21 - - - - - - - 14.7 1014.6 0.0
23/04:00pm NNW 15 19 - - - - - - - 15.3 1014.9 0.0
23/03:30pm NW 15 21 - - - - - - - 15.3 1015.2 0.0
23/03:00pm NW 14 21 - - - - - - - 15.3 1015.4 0.0
23/02:30pm NW 15 22 - - - - - - - 15.5 1015.5 0.0
23/02:00pm NW 14 19 - - - - - - - 15.4 1015.9 0.0
23/01:30pm NW 14 20 - - - - - - - 16.0 1016.4 0.0
23/01:00pm NNW 14 19 - - - - - - - 15.7 1016.9 0.0
23/12:30pm NNW 14 18 - - - - - - - 15.5 1017.5 0.0
23/12:00pm NNW 14 18 - - - - - - - 15.5 1018.2 0.0
23/11:30am NNW 13 17 - - - - - - - 15.4 1018.8 0.0
23/11:00am NNW 13 17 - - - - - - - 14.9 1019.2 0.0
23/10:30am NNW 12 16 - - - - - - - 14.4 1019.5 0.0
23/10:00am NNW 12 16 - - - - - - - 14.0 1019.7 0.0
23/09:30am NNW 11 15 - - - - - - - 13.9 1019.8 0.2
23/09:00am NNW 11 13 - - - - - - - 13.4 1019.7 0.2
23/08:30am NNW 10 14 - - - - - - - 13.0 1019.7 0.2
23/08:00am NNW 10 14 - - - - - - - 12.8 1019.7 0.2
23/07:30am NNW 12 17 - - - - - - - 12.9 1019.5 0.2
23/07:00am NNW 14 19 - - - - - - - 13.0 1019.4 0.2
23/06:30am NNW 13 17 - - - - - - - 12.9 1019.5 0.2
23/06:00am NNW 12 17 - - - - - - - 13.0 1019.6 0.2
23/05:30am NNW 14 18 - - - - - - - 13.1 1019.7 0.2
23/05:00am NNW 14 17 - - - - - - - 13.3 1019.5 0.2
23/04:30am NNW 14 19 - - - - - - - 13.4 1019.5 0.2
23/04:00am NNW 15 21 - - - - - - - 13.5 1020.0 0.2
23/03:30am NNW 14 19 - - - - - - - 13.6 1020.4 0.2
23/03:00am NNW 13 17 - - - - - - - 13.6 1020.9 0.2
23/02:30am NNW 12 16 - - - - - - - 13.4 1021.1 0.2
23/02:00am NNW 12 15 - - - - - - - 13.3 1021.5 0.2
23/01:30am NNW 10 13 - - - - - - - 13.5 1021.8 0.2
23/01:00am NNW 9 11 - - - - - - - 13.2 1021.9 0.2
23/12:30am NNW 11 15 - - - - - - - 13.3 1022.2 0.2
23/12:00am NNW 11 15 - - - - - - - 13.3 1022.5 0.2

Other formats

Comma delimited format used in spreadsheet applications
http://www.bom.gov.au/fwo/IDV60701/IDV60701.95816.axf

JavaScript Object Notation format (JSON) in row-major order
http://www.bom.gov.au/fwo/IDV60701/IDV60701.95816.json

Data quality

Most of these data are generated automatically and are frequently updated. Quality checks on data are not normally performed. It is possible for incorrect values to appear. Refer to information at About Latest Weather Observations and please check the disclaimer before using these data.